Time;durP1;ratioP1;P1;durP2;ratioP2;P2;SDS_P1;SDS_P2;PMS_P1;PMS_P2;Temp;Humidity;BMP_temperature;BMP_pressure;BME280_temperature;BME280_humidity;BME280_pressure;Samples;Min_cycle;Max_cycle;Signal;HPM_P1;HPM_P2
2022/04/18 00:00:28;;;;;;;5.40;2.00;;;12.20;53.60;;;;;;4893219;29;20076;-81
2022/04/18 00:02:55;;;;;;;4.40;1.88;;;12.10;53.60;;;;;;4894425;29;20045;-81
2022/04/18 00:05:22;;;;;;;4.05;1.92;;;12.20;53.60;;;;;;4895437;29;20518;-81
2022/04/18 00:07:49;;;;;;;5.93;1.88;;;12.20;53.60;;;;;;4894056;29;20557;-81
2022/04/18 00:10:16;;;;;;;4.45;1.80;;;12.10;53.50;;;;;;4894439;29;20056;-81
2022/04/18 00:12:44;;;;;;;3.65;1.75;;;12.10;53.50;;;;;;4894411;29;20064;-81
2022/04/18 00:15:11;;;;;;;5.68;1.65;;;12.10;53.50;;;;;;4892991;29;20591;-81
2022/04/18 00:17:37;;;;;;;4.00;1.70;;;12.10;53.40;;;;;;4894254;29;20044;-81
2022/04/18 00:20:05;;;;;;;4.78;1.60;;;12.10;53.40;;;;;;4896171;29;20053;-81
2022/04/18 00:22:32;;;;;;;4.32;1.80;;;12.10;53.30;;;;;;4894299;29;20502;-81
2022/04/18 00:24:59;;;;;;;3.45;1.60;;;12.10;53.30;;;;;;4894264;29;20056;-81
2022/04/18 00:27:26;;;;;;;6.63;1.88;;;12.10;53.30;;;;;;4894329;29;20044;-80
2022/04/18 00:29:53;;;;;;;3.58;1.70;;;12.10;53.20;;;;;;4894154;29;20048;-81
2022/04/18 00:32:19;;;;;;;3.60;1.60;;;12.00;53.20;;;;;;4895546;29;20045;-81
2022/04/18 00:34:46;;;;;;;3.47;1.63;;;12.00;53.10;;;;;;4894054;29;20082;-81
2022/04/18 00:37:17;;;;;;;2.97;1.35;;;12.10;53.10;;;;;;4892735;29;20049;-81
2022/04/18 00:39:44;;;;;;;4.38;1.70;;;12.00;53.10;;;;;;4894613;29;20055;-81
2022/04/18 00:42:11;;;;;;;3.47;1.58;;;12.00;53.10;;;;;;4896398;29;20052;-81
2022/04/18 00:44:37;;;;;;;4.07;1.50;;;12.00;53.10;;;;;;4897483;29;20506;-81
2022/04/18 00:47:05;;;;;;;3.45;1.48;;;12.00;53.00;;;;;;4899030;29;20056;-80
2022/04/18 00:49:34;;;;;;;4.30;1.50;;;12.00;53.00;;;;;;4896285;29;20076;-80
2022/04/18 00:52:03;;;;;;;5.70;1.90;;;12.00;53.00;;;;;;4896055;29;20052;-80
2022/04/18 00:54:32;;;;;;;3.00;1.45;;;12.00;53.00;;;;;;4896081;29;20052;-80
2022/04/18 00:56:59;;;;;;;3.40;1.75;;;12.00;53.00;;;;;;4896310;29;20055;-81
2022/04/18 00:59:29;;;;;;;3.58;1.27;;;12.00;53.00;;;;;;4898471;29;20052;-80
2022/04/18 01:01:56;;;;;;;3.25;1.30;;;12.00;53.00;;;;;;4897596;29;20649;-81
2022/04/18 01:04:23;;;;;;;4.70;1.80;;;12.00;53.00;;;;;;4895940;29;20494;-81
2022/04/18 01:06:50;;;;;;;3.47;1.30;;;12.00;53.00;;;;;;4895926;29;20052;-81
2022/04/18 01:09:18;;;;;;;3.15;1.38;;;12.00;53.00;;;;;;4895980;29;20049;-81
2022/04/18 01:11:45;;;;;;;4.10;1.80;;;12.00;53.00;;;;;;4881409;29;20053;-81
2022/04/18 01:14:12;;;;;;;4.30;1.40;;;11.90;53.00;;;;;;4895699;29;20395;-80
2022/04/18 01:16:38;;;;;;;2.83;1.50;;;11.90;53.00;;;;;;4895463;29;20056;-80
2022/04/18 01:19:05;;;;;;;3.58;1.70;;;11.90;53.00;;;;;;4895935;29;20116;-80
2022/04/18 01:21:32;;;;;;;2.88;1.38;;;11.90;53.00;;;;;;4895632;29;20063;-80
2022/04/18 01:23:59;;;;;;;3.40;1.40;;;11.90;53.10;;;;;;4895789;29;20044;-81
2022/04/18 01:29:12;;;;;;;3.28;1.38;;;11.90;53.20;;;;;;4895508;29;20048;-80
2022/04/18 01:31:39;;;;;;;3.15;1.20;;;11.90;53.20;;;;;;4895149;29;20407;-81
2022/04/18 01:34:07;;;;;;;4.38;1.50;;;11.90;53.20;;;;;;4895502;29;20139;-81
2022/04/18 01:36:35;;;;;;;3.22;1.45;;;11.90;53.20;;;;;;4895738;29;20123;-81
2022/04/18 01:39:02;;;;;;;4.20;1.40;;;11.90;53.20;;;;;;4895414;29;20098;-80
2022/04/18 01:41:29;;;;;;;4.18;1.50;;;11.90;53.30;;;;;;4897705;29;20142;-81
2022/04/18 01:43:57;;;;;;;3.30;1.70;;;11.80;53.20;;;;;;4897022;29;20056;-80
2022/04/18 01:46:24;;;;;;;3.60;1.45;;;11.80;53.30;;;;;;4894882;29;20399;-80
2022/04/18 01:48:51;;;;;;;4.85;1.40;;;11.70;53.40;;;;;;4895084;29;20127;-80
2022/04/18 01:51:19;;;;;;;3.30;1.48;;;11.70;53.40;;;;;;4895019;29;20540;-80
2022/04/18 01:53:47;;;;;;;3.50;1.55;;;11.70;53.50;;;;;;4880665;29;20127;-81
2022/04/18 01:56:14;;;;;;;3.10;1.33;;;11.60;53.60;;;;;;4895393;29;20470;-80
2022/04/18 01:58:41;;;;;;;3.38;1.67;;;11.60;53.70;;;;;;4895607;29;20100;-80
2022/04/18 02:01:08;;;;;;;3.25;1.58;;;11.60;53.80;;;;;;4894562;29;20088;-80
2022/04/18 02:03:39;;;;;;;4.45;1.42;;;11.60;53.90;;;;;;4895069;29;20044;-80
2022/04/18 02:06:06;;;;;;;3.50;1.50;;;11.60;54.10;;;;;;4894912;29;20495;-81
2022/04/18 02:08:35;;;;;;;4.07;1.65;;;11.50;54.20;;;;;;4896677;29;20052;-81
2022/04/18 02:11:04;;;;;;;3.60;1.65;;;11.40;54.30;;;;;;4897393;29;20463;-80
2022/04/18 02:13:31;;;;;;;3.40;1.50;;;11.40;54.50;;;;;;4894346;29;20112;-80
2022/04/18 02:15:59;;;;;;;3.85;1.85;;;11.40;54.60;;;;;;4894808;29;20091;-80
2022/04/18 02:18:26;;;;;;;2.95;1.50;;;11.40;54.70;;;;;;4894679;29;20419;-80
2022/04/18 02:20:54;;;;;;;3.97;1.58;;;11.30;54.90;;;;;;4894798;29;20045;-80
2022/04/18 02:23:21;;;;;;;3.60;1.50;;;11.30;55.00;;;;;;4897301;29;20159;-81
2022/04/18 02:25:49;;;;;;;6.15;1.88;;;11.20;55.20;;;;;;4897260;29;20052;-81
2022/04/18 02:28:15;;;;;;;4.72;1.77;;;11.20;55.40;;;;;;4894182;29;20458;-81
2022/04/18 02:30:42;;;;;;;3.47;1.63;;;11.10;55.50;;;;;;4895914;29;20044;-81
2022/04/18 02:33:09;;;;;;;3.25;1.63;;;11.10;55.70;;;;;;4896024;29;20093;-81
2022/04/18 02:35:36;;;;;;;3.78;1.67;;;11.10;55.80;;;;;;4897077;29;20056;-81
2022/04/18 02:38:03;;;;;;;4.43;1.95;;;11.00;55.90;;;;;;4897112;29;20656;-81
2022/04/18 02:40:30;;;;;;;3.38;1.58;;;10.90;56.00;;;;;;4894360;29;20403;-80
2022/04/18 02:42:57;;;;;;;4.35;1.77;;;10.90;56.20;;;;;;4894038;29;20574;-80
2022/04/18 02:45:24;;;;;;;5.22;1.83;;;10.90;56.30;;;;;;4894161;29;20471;-80
2022/04/18 02:47:51;;;;;;;6.60;1.90;;;10.90;56.40;;;;;;4894412;29;20053;-80
2022/04/18 02:50:18;;;;;;;3.67;1.88;;;10.80;56.50;;;;;;4897430;29;20052;-81
2022/04/18 02:52:44;;;;;;;5.18;1.92;;;10.70;56.60;;;;;;4895143;29;20044;-81
2022/04/18 02:55:11;;;;;;;5.35;1.73;;;10.70;56.80;;;;;;4893708;29;20108;-80
2022/04/18 02:57:40;;;;;;;3.97;2.00;;;10.60;56.90;;;;;;4893544;29;20052;-80
2022/04/18 03:00:08;;;;;;;3.72;1.83;;;10.60;57.00;;;;;;4894200;29;20093;-80
2022/04/18 03:02:36;;;;;;;2.95;1.50;;;10.50;57.10;;;;;;4894976;29;20502;-80
2022/04/18 03:05:06;;;;;;;4.07;1.73;;;10.50;57.20;;;;;;4896618;29;20104;-80
2022/04/18 03:07:33;;;;;;;3.10;1.50;;;10.40;57.40;;;;;;4893899;29;20052;-80
2022/04/18 03:10:00;;;;;;;4.00;1.70;;;10.40;57.50;;;;;;4893866;29;20064;-80
2022/04/18 03:12:27;;;;;;;3.53;1.70;;;10.40;57.60;;;;;;4893601;29;20123;-80
2022/04/18 03:14:54;;;;;;;4.05;1.70;;;10.30;57.70;;;;;;4894001;29;20113;-80
2022/04/18 03:17:21;;;;;;;3.05;1.58;;;10.30;57.80;;;;;;4896734;29;20447;-80
2022/04/18 03:19:48;;;;;;;3.58;1.67;;;10.20;57.90;;;;;;4894999;29;20582;-80
2022/04/18 03:22:15;;;;;;;4.28;1.73;;;10.20;58.00;;;;;;4894953;29;20060;-80
2022/04/18 03:24:42;;;;;;;4.40;1.85;;;10.10;58.10;;;;;;4894858;29;20458;-80
2022/04/18 03:27:09;;;;;;;5.90;1.50;;;10.10;58.30;;;;;;4894712;29;20116;-80
2022/04/18 03:29:37;;;;;;;3.20;1.77;;;10.00;58.40;;;;;;4894871;29;20048;-80
2022/04/18 03:32:11;;;;;;;3.50;1.88;;;10.00;58.50;;;;;;4897263;29;20056;-80
2022/04/18 03:34:38;;;;;;;4.07;2.05;;;9.90;58.60;;;;;;4894659;29;20048;-81
2022/04/18 03:39:50;;;;;;;4.55;2.22;;;9.90;58.80;;;;;;4894605;29;20514;-80
2022/04/18 03:42:31;;;;;;;4.30;1.70;;;9.80;59.00;;;;;;4894730;29;20048;-80
2022/04/18 03:45:00;;;;;;;3.60;1.90;;;9.70;59.10;;;;;;4879854;29;20144;-80
2022/04/18 03:47:28;;;;;;;6.97;2.00;;;9.70;59.20;;;;;;4895538;29;20092;-80
2022/04/18 03:49:55;;;;;;;3.85;1.80;;;9.70;59.30;;;;;;4894794;29;20100;-79
2022/04/18 03:52:23;;;;;;;4.20;1.52;;;9.60;59.30;;;;;;4893097;29;20112;-80
2022/04/18 03:54:51;;;;;;;6.03;1.77;;;9.50;59.40;;;;;;4892704;29;20064;-80
2022/04/18 03:57:18;;;;;;;3.08;1.60;;;9.50;59.50;;;;;;4893549;29;20104;-80
2022/04/18 03:59:45;;;;;;;3.30;1.70;;;9.50;59.60;;;;;;4878561;29;20506;-80
2022/04/18 04:02:13;;;;;;;3.63;1.73;;;9.40;59.70;;;;;;4897042;29;20053;-81
2022/04/18 04:04:41;;;;;;;3.45;1.70;;;9.40;59.80;;;;;;4892937;29;20056;-80
2022/04/18 04:07:08;;;;;;;3.67;1.85;;;9.30;59.90;;;;;;4893060;29;20052;-80
2022/04/18 04:09:36;;;;;;;3.35;1.70;;;9.30;59.90;;;;;;4892439;29;20100;-80
2022/04/18 04:12:05;;;;;;;4.50;2.20;;;9.20;60.00;;;;;;4894376;29;20061;-80
2022/04/18 04:14:33;;;;;;;7.68;2.05;;;9.20;60.20;;;;;;4896698;29;20053;-81
2022/04/18 04:17:00;;;;;;;3.65;1.90;;;9.10;60.20;;;;;;4898067;29;20540;-80
2022/04/18 04:19:27;;;;;;;4.78;1.80;;;9.00;60.40;;;;;;4896669;29;20495;-80
2022/04/18 04:21:54;;;;;;;3.55;1.85;;;9.00;60.50;;;;;;4896888;29;20052;-80
2022/04/18 04:24:22;;;;;;;3.35;1.73;;;9.00;60.60;;;;;;4898032;29;20048;-80
2022/04/18 04:26:49;;;;;;;4.38;2.17;;;8.90;60.70;;;;;;4896727;29;20048;-80
2022/04/18 04:29:17;;;;;;;2.92;1.63;;;8.90;60.80;;;;;;4900769;29;20081;-80
2022/04/18 04:31:44;;;;;;;4.10;2.13;;;8.80;60.80;;;;;;4898297;29;20056;-80
2022/04/18 04:34:12;;;;;;;4.43;1.73;;;8.80;60.90;;;;;;4896473;29;20175;-80
2022/04/18 04:36:40;;;;;;;4.00;1.88;;;8.70;61.00;;;;;;4896733;29;20584;-80
2022/04/18 04:39:08;;;;;;;3.63;1.80;;;8.70;61.10;;;;;;4896230;29;20069;-80
2022/04/18 04:41:35;;;;;;;5.90;2.03;;;8.70;61.20;;;;;;4897019;29;20116;-80
2022/04/18 04:44:03;;;;;;;3.85;1.88;;;8.60;61.30;;;;;;4899097;29;20052;-80
2022/04/18 04:46:30;;;;;;;4.03;1.70;;;8.50;61.30;;;;;;4895981;29;20104;-80
2022/04/18 04:48:57;;;;;;;2.90;1.60;;;8.50;61.30;;;;;;4896086;29;20540;-80
2022/04/18 04:51:24;;;;;;;3.90;1.90;;;8.50;61.40;;;;;;4897545;29;20467;-80
2022/04/18 04:53:51;;;;;;;3.97;2.03;;;8.40;61.50;;;;;;4896151;29;20048;-80
2022/04/18 04:56:18;;;;;;;3.28;1.85;;;8.40;61.60;;;;;;4899665;29;20081;-80
2022/04/18 04:58:44;;;;;;;3.70;1.98;;;8.40;61.70;;;;;;4896879;29;20112;-80
2022/04/18 05:01:11;;;;;;;3.63;1.85;;;8.40;61.70;;;;;;4896129;29;20048;-79
2022/04/18 05:03:39;;;;;;;3.60;1.80;;;8.40;61.80;;;;;;4896065;29;20096;-80
2022/04/18 05:06:07;;;;;;;6.38;2.25;;;8.30;61.90;;;;;;4895891;29;20060;-80
2022/04/18 05:08:34;;;;;;;4.35;2.08;;;8.20;61.90;;;;;;4897350;29;20566;-80
2022/04/18 05:11:01;;;;;;;3.55;1.88;;;8.20;61.90;;;;;;4897266;29;20052;-80
2022/04/18 05:13:28;;;;;;;4.13;2.00;;;8.20;62.00;;;;;;4897025;29;20060;-80
2022/04/18 05:15:55;;;;;;;4.38;1.80;;;8.10;62.00;;;;;;4895943;29;20071;-80
2022/04/18 05:18:22;;;;;;;4.00;1.77;;;8.10;62.10;;;;;;4897383;29;20088;-80
2022/04/18 05:20:49;;;;;;;8.60;2.30;;;8.00;62.10;;;;;;4895963;29;20117;-80
2022/04/18 05:23:20;;;;;;;3.97;2.00;;;8.00;62.10;;;;;;4899403;29;20105;-80
2022/04/18 05:25:47;;;;;;;4.57;1.90;;;8.00;62.20;;;;;;4897275;29;20092;-80
2022/04/18 05:28:14;;;;;;;4.45;2.28;;;7.90;62.20;;;;;;4897075;29;20088;-80
2022/04/18 05:30:41;;;;;;;4.35;1.90;;;7.90;62.30;;;;;;4897043;29;20048;-80
2022/04/18 05:33:08;;;;;;;5.13;2.33;;;7.90;62.40;;;;;;4895512;29;20052;-80
2022/04/18 05:35:35;;;;;;;6.53;2.13;;;7.90;62.50;;;;;;4897203;29;20048;-80
2022/04/18 05:38:02;;;;;;;4.88;2.17;;;7.80;62.60;;;;;;4897678;29;20056;-80
2022/04/18 05:40:29;;;;;;;5.65;2.00;;;7.90;62.70;;;;;;4895366;29;20052;-80
2022/04/18 05:42:56;;;;;;;3.60;1.90;;;7.80;62.70;;;;;;4895356;29;20104;-80
2022/04/18 05:45:23;;;;;;;3.65;2.00;;;7.80;62.80;;;;;;4895143;29;20096;-82
2022/04/18 05:47:50;;;;;;;3.88;2.10;;;7.80;62.80;;;;;;4895475;29;20104;-81
2022/04/18 05:50:17;;;;;;;6.22;2.38;;;7.70;62.90;;;;;;4899036;29;20048;-81
2022/04/18 05:52:43;;;;;;;6.32;2.55;;;7.70;62.90;;;;;;4897046;29;20057;-80
2022/04/18 05:55:10;;;;;;;5.75;2.10;;;7.70;63.00;;;;;;4894779;29;20692;-80
2022/04/18 05:57:37;;;;;;;4.78;2.65;;;7.70;63.10;;;;;;4895158;29;20498;-81
2022/04/18 06:00:05;;;;;;;5.55;2.05;;;7.70;63.20;;;;;;4895309;29;20524;-80
2022/04/18 06:02:32;;;;;;;3.90;2.20;;;7.70;63.20;;;;;;4897127;29;20053;-80
2022/04/18 06:05:05;;;;;;;5.07;2.60;;;7.70;63.30;;;;;;4897865;29;20088;-80
2022/04/18 06:07:32;;;;;;;4.32;2.13;;;7.70;63.40;;;;;;4894499;29;20108;-80
2022/04/18 06:09:59;;;;;;;4.95;2.33;;;7.60;63.50;;;;;;4894691;29;20048;-80
2022/04/18 06:12:26;;;;;;;4.32;2.40;;;7.60;63.60;;;;;;4894840;29;20056;-80
2022/04/18 06:14:54;;;;;;;4.68;2.42;;;7.60;63.70;;;;;;4894813;29;20463;-81
2022/04/18 06:17:20;;;;;;;3.95;2.15;;;7.60;63.80;;;;;;4897884;29;20056;-81
2022/04/18 06:19:49;;;;;;;4.80;2.63;;;7.60;63.80;;;;;;4895993;29;20063;-81
2022/04/18 06:22:19;;;;;;;5.13;2.25;;;7.60;63.80;;;;;;4894510;29;20056;-80
2022/04/18 06:24:45;;;;;;;5.78;2.20;;;7.70;63.90;;;;;;4894761;29;20120;-80
2022/04/18 06:27:12;;;;;;;4.68;2.50;;;7.70;63.90;;;;;;4894804;29;20049;-80
2022/04/18 06:29:39;;;;;;;4.20;2.45;;;7.70;63.90;;;;;;4895907;29;20561;-80
2022/04/18 06:32:07;;;;;;;3.92;2.05;;;7.80;64.00;;;;;;4897616;29;20064;-80
2022/04/18 06:34:33;;;;;;;4.32;2.08;;;7.80;64.10;;;;;;4894163;29;20057;-80
2022/04/18 06:37:00;;;;;;;5.43;2.35;;;7.90;64.20;;;;;;4893959;29;20084;-80
2022/04/18 06:39:27;;;;;;;5.28;2.28;;;7.90;64.20;;;;;;4895332;29;20116;-80
2022/04/18 06:41:55;;;;;;;4.63;2.35;;;7.90;64.20;;;;;;4895803;29;20116;-80
2022/04/18 06:44:23;;;;;;;3.97;2.35;;;7.90;64.30;;;;;;4896768;29;20087;-80
2022/04/18 06:46:55;;;;;;;5.60;2.83;;;8.00;64.20;;;;;;4897640;29;20432;-80
2022/04/18 06:49:22;;;;;;;5.47;2.60;;;8.00;64.30;;;;;;4895148;29;20771;-80
2022/04/18 06:51:49;;;;;;;6.40;2.47;;;8.10;64.40;;;;;;4894275;29;20104;-80
2022/04/18 06:54:16;;;;;;;4.63;2.53;;;8.20;64.40;;;;;;4895725;29;20108;-80
2022/04/18 06:57:01;;;;;;;7.70;2.67;;;8.20;64.40;;;;;;4894770;29;20048;-80
2022/04/18 06:59:29;;;;;;;4.00;2.28;;;8.30;64.40;;;;;;4894169;29;20068;-80
2022/04/18 07:01:58;;;;;;;4.22;2.28;;;8.40;64.50;;;;;;4897581;29;20059;-80
2022/04/18 07:04:25;;;;;;;6.35;2.22;;;8.40;64.50;;;;;;4893529;29;20053;-81
2022/04/18 07:06:52;;;;;;;4.93;2.67;;;8.40;64.50;;;;;;4893757;29;20052;-82
2022/04/18 07:09:19;;;;;;;5.53;2.35;;;8.50;64.40;;;;;;4893806;29;20104;-81
2022/04/18 07:11:46;;;;;;;5.95;2.50;;;8.50;64.40;;;;;;4880475;29;20544;-81
2022/04/18 07:14:14;;;;;;;4.40;2.70;;;8.60;64.40;;;;;;4897550;29;20056;-81
2022/04/18 07:16:42;;;;;;;5.00;2.95;;;8.70;64.30;;;;;;4893829;29;20128;-81
2022/04/18 07:19:09;;;;;;;7.82;2.65;;;8.80;64.30;;;;;;4893225;29;20048;-81
2022/04/18 07:21:36;;;;;;;5.90;2.80;;;8.90;64.30;;;;;;4893388;29;20052;-80
2022/04/18 07:24:06;;;;;;;5.53;2.80;;;8.90;64.30;;;;;;4894613;29;20116;-80
2022/04/18 07:26:33;;;;;;;6.38;2.70;;;9.00;64.30;;;;;;4894862;29;20117;-81
2022/04/18 07:29:00;;;;;;;4.68;2.58;;;9.20;64.30;;;;;;4897353;29;20085;-81
2022/04/18 07:31:27;;;;;;;5.53;2.80;;;9.20;64.20;;;;;;4893311;29;20473;-81
2022/04/18 07:33:54;;;;;;;5.05;2.20;;;9.40;64.10;;;;;;4892762;29;20506;-81
2022/04/18 07:36:21;;;;;;;6.65;2.35;;;9.50;63.90;;;;;;4893258;29;20104;-81
2022/04/18 07:38:51;;;;;;;6.25;2.63;;;9.60;63.70;;;;;;4893600;29;20056;-81
2022/04/18 07:41:23;;;;;;;5.85;2.92;;;9.70;63.60;;;;;;4897715;29;20092;-81
2022/04/18 07:43:52;;;;;;;4.68;2.67;;;9.90;63.50;;;;;;4894279;29;20045;-80
2022/04/18 07:46:19;;;;;;;5.22;2.72;;;10.00;63.40;;;;;;4892911;29;20049;-80
2022/04/18 07:48:49;;;;;;;5.40;2.90;;;10.10;63.30;;;;;;4892671;29;20502;-81
2022/04/18 07:51:36;;;;;;;6.45;2.60;;;10.20;63.10;;;;;;4893148;29;20064;-80
2022/04/18 07:54:05;;;;;;;10.43;2.72;;;10.40;62.80;;;;;;4880365;29;20053;-80
2022/04/18 07:56:33;;;;;;;5.50;2.75;;;10.40;62.50;;;;;;4894897;29;20049;-80
2022/04/18 07:59:01;;;;;;;5.22;2.45;;;10.60;62.10;;;;;;4897219;29;20514;-80
2022/04/18 08:01:29;;;;;;;4.90;2.38;;;10.70;61.80;;;;;;4892880;29;20048;-80
2022/04/18 08:04:00;;;;;;;5.47;2.25;;;10.90;61.50;;;;;;4892872;29;20088;-81
2022/04/18 08:06:28;;;;;;;4.45;2.03;;;10.90;61.10;;;;;;4894288;29;20053;-81
2022/04/18 08:08:55;;;;;;;3.92;2.45;;;11.00;60.80;;;;;;4893045;29;20511;-81
2022/04/18 08:11:22;;;;;;;4.35;2.25;;;11.20;60.40;;;;;;4895673;29;20049;-81
2022/04/18 08:13:51;;;;;;;5.82;2.10;;;11.40;60.10;;;;;;4895585;29;20060;-81
2022/04/18 08:16:18;;;;;;;4.68;2.38;;;11.40;59.90;;;;;;4892540;29;20052;-81
2022/04/18 08:18:46;;;;;;;5.05;2.38;;;11.50;59.70;;;;;;4892856;29;20049;-81
2022/04/18 08:21:17;;;;;;;3.38;1.85;;;11.70;59.50;;;;;;4892881;29;20106;-81
2022/04/18 08:23:46;;;;;;;7.60;2.40;;;11.80;59.20;;;;;;4893458;29;20537;-81
2022/04/18 08:26:13;;;;;;;6.60;2.70;;;11.90;59.00;;;;;;4896794;29;20115;-81
2022/04/18 08:28:40;;;;;;;4.32;2.00;;;12.00;58.90;;;;;;4893039;29;20053;-82
2022/04/18 08:31:08;;;;;;;4.32;2.15;;;12.10;58.70;;;;;;4892617;29;20049;-81
2022/04/18 08:33:35;;;;;;;3.47;1.73;;;12.30;58.50;;;;;;4892720;29;20052;-81
2022/04/18 08:36:03;;;;;;;4.15;2.42;;;12.40;58.20;;;;;;4892884;29;20057;-81
2022/04/18 08:38:30;;;;;;;6.93;2.40;;;12.50;58.00;;;;;;4894027;29;20499;-80
2022/04/18 08:41:04;;;;;;;5.60;2.20;;;12.50;57.80;;;;;;4894719;29;20057;-82
2022/04/18 08:43:31;;;;;;;4.53;1.88;;;12.70;57.50;;;;;;4892782;29;20080;-82
2022/04/18 08:45:59;;;;;;;7.65;2.05;;;12.80;57.30;;;;;;4893671;29;20417;-82
2022/04/18 08:53:59;;;;;;;3.50;1.90;;;13.20;56.60;;;;;;4879219;29;20053;-82
2022/04/18 08:56:27;;;;;;;4.53;2.10;;;13.30;56.40;;;;;;4894985;29;20191;-81
2022/04/18 08:58:54;;;;;;;3.58;1.75;;;13.40;56.30;;;;;;4894275;29;20120;-82
2022/04/18 09:01:21;;;;;;;4.20;1.80;;;13.40;56.20;;;;;;4893148;29;20462;-82
2022/04/18 09:03:49;;;;;;;4.75;2.03;;;13.50;56.00;;;;;;4895873;29;20133;-82
2022/04/18 09:06:16;;;;;;;3.35;1.70;;;13.70;55.80;;;;;;4896323;29;20045;-82
2022/04/18 09:08:51;;;;;;;4.68;2.20;;;13.80;55.60;;;;;;4896777;29;20064;-82
2022/04/18 09:11:30;;;;;;;4.78;2.15;;;13.90;55.30;;;;;;4895823;29;20112;-81
2022/04/18 09:14:19;;;;;;;4.32;1.92;;;14.00;55.00;;;;;;4899077;29;20064;-82
2022/04/18 09:16:46;;;;;;;5.43;1.90;;;14.20;54.80;;;;;;4893539;29;20061;-82
2022/04/18 09:19:16;;;;;;;5.43;1.90;;;14.30;54.60;;;;;;4891859;29;20104;-83
2022/04/18 09:21:56;;;;;;;4.47;1.98;;;14.40;54.50;;;;;;4895461;29;20470;-82
2022/04/18 09:24:32;;;;;;;4.22;2.13;;;14.50;54.30;;;;;;4895780;29;20052;-83
2022/04/18 09:27:29;;;;;;;3.75;1.90;;;14.60;54.10;;;;;;4895558;29;20057;-82
2022/04/18 09:30:08;;;;;;;3.47;1.63;;;14.80;53.80;;;;;;4901364;29;20525;-82
2022/04/18 09:32:35;;;;;;;5.15;2.17;;;14.90;53.50;;;;;;4896966;29;20104;-82
2022/04/18 09:35:05;;;;;;;5.68;1.98;;;15.10;53.30;;;;;;4897859;29;20113;-82
2022/04/18 09:37:32;;;;;;;4.10;2.00;;;15.20;53.10;;;;;;4895352;29;20075;-82
2022/04/18 09:39:59;;;;;;;5.60;2.00;;;15.30;52.90;;;;;;4895438;29;20119;-82
2022/04/18 09:42:28;;;;;;;4.25;1.80;;;15.40;52.70;;;;;;4895560;29;20687;-82
2022/04/18 09:44:56;;;;;;;4.20;2.08;;;15.40;52.60;;;;;;4894750;29;20089;-82
2022/04/18 09:47:26;;;;;;;4.63;2.55;;;15.50;52.40;;;;;;4897844;29;20060;-82
2022/04/18 09:49:54;;;;;;;4.47;1.90;;;15.60;52.30;;;;;;4896039;29;20101;-82
2022/04/18 09:52:21;;;;;;;4.35;1.88;;;15.70;52.30;;;;;;4896468;29;20060;-82
2022/04/18 09:54:58;;;;;;;3.55;1.75;;;15.70;52.00;;;;;;4894919;29;20450;-82
2022/04/18 09:57:27;;;;;;;5.72;2.03;;;15.90;51.80;;;;;;4896163;29;20049;-82
2022/04/18 09:59:56;;;;;;;6.35;1.95;;;15.90;51.60;;;;;;4894806;29;20100;-82
2022/04/18 10:02:28;;;;;;;4.38;1.85;;;15.90;51.60;;;;;;4897919;29;20056;-82
2022/04/18 10:04:57;;;;;;;4.50;1.70;;;16.00;51.60;;;;;;4898229;29;20506;-82
2022/04/18 10:07:24;;;;;;;4.47;2.22;;;16.00;51.50;;;;;;4896191;29;20470;-83
2022/04/18 10:09:53;;;;;;;6.55;1.85;;;16.10;51.30;;;;;;4894706;29;20052;-82
2022/04/18 10:12:20;;;;;;;5.45;1.95;;;16.20;51.20;;;;;;4894495;29;20049;-83
2022/04/18 10:14:47;;;;;;;4.97;1.83;;;16.30;51.10;;;;;;4880125;29;20135;-82
2022/04/18 10:17:17;;;;;;;4.45;1.90;;;16.30;51.00;;;;;;4894607;29;20116;-83
2022/04/18 10:20:09;;;;;;;3.80;1.83;;;16.40;50.90;;;;;;4896691;29;20049;-82
2022/04/18 10:22:49;;;;;;;4.38;1.60;;;16.40;50.70;;;;;;4895689;29;20602;-82
2022/04/18 10:25:41;;;;;;;4.65;1.70;;;16.40;50.70;;;;;;4895710;29;20063;-81
2022/04/18 10:28:18;;;;;;;7.78;1.70;;;16.50;50.50;;;;;;4893932;29;20467;-82
2022/04/18 10:30:59;;;;;;;4.70;1.73;;;16.60;50.40;;;;;;4895853;29;20052;-82
2022/04/18 10:33:26;;;;;;;4.30;2.00;;;16.60;50.30;;;;;;4894161;29;20574;-82
2022/04/18 10:36:01;;;;;;;3.20;1.50;;;16.80;50.20;;;;;;4894287;29;20440;-81
2022/04/18 10:38:31;;;;;;;3.22;1.63;;;16.80;50.10;;;;;;4896025;29;20100;-81
2022/04/18 10:41:17;;;;;;;4.50;1.85;;;16.90;50.10;;;;;;4899195;29;20052;-81
2022/04/18 10:44:00;;;;;;;3.67;1.75;;;16.90;50.10;;;;;;4895909;29;20104;-81
2022/04/18 10:46:28;;;;;;;3.53;1.90;;;17.10;49.90;;;;;;4892969;29;20060;-81
2022/04/18 10:48:59;;;;;;;5.28;2.05;;;17.10;49.90;;;;;;4893777;29;20431;-81
2022/04/18 10:51:33;;;;;;;3.63;1.67;;;17.20;49.80;;;;;;4894020;29;20049;-81
2022/04/18 10:54:21;;;;;;;5.82;2.00;;;17.30;49.70;;;;;;4893931;29;20053;-81
2022/04/18 10:56:54;;;;;;;4.35;2.20;;;17.40;49.60;;;;;;4879777;29;20049;-81
2022/04/18 10:59:24;;;;;;;3.93;1.87;;;17.50;49.60;;;;;;4893620;29;20056;-81
2022/04/18 11:01:52;;;;;;;4.10;1.75;;;17.60;49.50;;;;;;4896610;29;20049;-81
2022/04/18 11:04:24;;;;;;;3.58;1.85;;;17.70;49.40;;;;;;4893770;29;20096;-81
2022/04/18 11:06:58;;;;;;;4.03;1.70;;;17.80;49.30;;;;;;4893368;29;20047;-80
2022/04/18 11:09:27;;;;;;;4.18;1.90;;;17.80;49.20;;;;;;4893696;29;20129;-81
2022/04/18 11:12:06;;;;;;;5.20;2.08;;;17.90;49.10;;;;;;4893389;29;20045;-81
2022/04/18 11:14:38;;;;;;;5.10;2.10;;;18.00;49.10;;;;;;4895747;29;20059;-80
2022/04/18 11:17:09;;;;;;;4.90;1.95;;;18.00;49.00;;;;;;4896138;29;20052;-80
2022/04/18 11:19:38;;;;;;;4.90;1.92;;;18.10;49.00;;;;;;4893219;29;20052;-81
2022/04/18 11:22:10;;;;;;;4.82;1.90;;;18.10;48.90;;;;;;4894840;29;20057;-80
2022/04/18 11:24:43;;;;;;;4.55;2.13;;;18.20;48.80;;;;;;4894026;29;20052;-81
2022/04/18 11:27:14;;;;;;;4.78;1.80;;;18.20;48.80;;;;;;4894762;29;20509;-81
2022/04/18 11:29:43;;;;;;;4.35;1.92;;;18.20;48.70;;;;;;4894777;29;20108;-80
2022/04/18 11:32:15;;;;;;;4.32;2.00;;;18.30;48.70;;;;;;4896799;29;20447;-80
2022/04/18 11:34:45;;;;;;;4.05;1.95;;;18.30;48.60;;;;;;4894417;29;20049;-81
2022/04/18 11:37:13;;;;;;;4.82;2.22;;;18.30;48.60;;;;;;4893251;29;20191;-80
2022/04/18 11:39:49;;;;;;;3.97;1.85;;;18.40;48.60;;;;;;4893168;29;20045;-80
2022/04/18 11:42:18;;;;;;;3.97;1.92;;;18.40;48.60;;;;;;4893363;29;20471;-80
2022/04/18 11:44:46;;;;;;;4.82;2.00;;;18.40;48.60;;;;;;4893626;29;20056;-80
2022/04/18 11:47:21;;;;;;;3.83;1.90;;;18.40;48.60;;;;;;4896592;29;20470;-80
2022/04/18 11:49:58;;;;;;;3.92;1.98;;;18.40;48.60;;;;;;4893185;29;20108;-80
2022/04/18 11:52:27;;;;;;;3.60;1.90;;;18.40;48.50;;;;;;4892351;29;20112;-80
2022/04/18 11:55:17;;;;;;;4.53;2.00;;;18.50;48.60;;;;;;4892496;29;20471;-80
2022/04/18 11:57:48;;;;;;;3.80;1.92;;;18.50;48.50;;;;;;4894413;29;20045;-80
2022/04/18 12:08:48;;;;;;;3.60;2.05;;;18.60;48.60;;;;;;4893478;29;20049;-80
2022/04/18 12:11:16;;;;;;;4.25;2.05;;;18.70;48.60;;;;;;4892884;29;20052;-80
2022/04/18 12:13:47;;;;;;;3.70;1.83;;;18.70;48.60;;;;;;4892544;29;20057;-80
2022/04/18 12:16:20;;;;;;;5.72;2.22;;;18.70;48.70;;;;;;4893594;29;20096;-80
2022/04/18 12:18:47;;;;;;;4.03;2.10;;;18.80;48.60;;;;;;4892720;29;20052;-80
2022/04/18 12:21:14;;;;;;;6.43;2.20;;;18.80;48.60;;;;;;4893781;29;20114;-80
2022/04/18 12:23:41;;;;;;;4.93;2.38;;;18.80;48.60;;;;;;4892356;29;20065;-81
2022/04/18 12:26:12;;;;;;;4.10;2.13;;;18.80;48.60;;;;;;4895553;29;20466;-80
2022/04/18 12:28:40;;;;;;;4.35;2.33;;;18.90;48.50;;;;;;4892625;29;20088;-81
2022/04/18 12:31:10;;;;;;;8.23;1.98;;;18.90;48.50;;;;;;4892514;29;20048;-80
2022/04/18 12:33:48;;;;;;;4.32;1.88;;;18.90;48.50;;;;;;4892548;29;20048;-81
2022/04/18 12:36:22;;;;;;;4.20;2.03;;;18.90;48.40;;;;;;4893548;29;20044;-81
2022/04/18 12:38:49;;;;;;;4.07;1.90;;;19.00;48.30;;;;;;4883073;29;20110;-81
2022/04/18 12:41:33;;;;;;;5.75;2.20;;;19.00;48.30;;;;;;4896328;29;20045;-80
2022/04/18 12:44:01;;;;;;;5.03;1.92;;;19.10;48.20;;;;;;4898179;29;20052;-81
2022/04/18 12:46:32;;;;;;;6.40;2.60;;;19.10;48.20;;;;;;4896212;29;20057;-81
2022/04/18 12:49:08;;;;;;;7.13;2.70;;;19.20;48.20;;;;;;4896562;29;20096;-81
2022/04/18 12:51:39;;;;;;;5.40;2.70;;;19.20;48.10;;;;;;4896259;29;20084;-80
2022/04/18 12:54:21;;;;;;;4.75;2.60;;;19.20;48.10;;;;;;4896357;29;20057;-80
2022/04/18 12:56:49;;;;;;;5.53;3.10;;;19.20;48.20;;;;;;4891119;29;20045;-80
2022/04/18 12:59:24;;;;;;;5.18;2.75;;;19.30;48.20;;;;;;4896332;29;20053;-80
2022/04/18 13:01:51;;;;;;;5.75;2.72;;;19.30;48.20;;;;;;4898649;29;20592;-80
2022/04/18 13:04:22;;;;;;;6.63;3.25;;;19.30;48.30;;;;;;4896223;29;20064;-80
2022/04/18 13:07:03;;;;;;;5.75;2.88;;;19.30;48.30;;;;;;4895698;29;20049;-80
2022/04/18 13:09:31;;;;;;;6.38;3.15;;;19.30;48.40;;;;;;4895923;29;20059;-80
2022/04/18 13:12:04;;;;;;;8.20;3.75;;;19.40;48.40;;;;;;4897218;29;20056;-80
2022/04/18 13:14:31;;;;;;;5.33;2.83;;;19.40;48.50;;;;;;4898006;29;20116;-81
2022/04/18 13:17:11;;;;;;;7.55;3.10;;;19.40;48.50;;;;;;4897542;29;20049;-80
2022/04/18 13:19:39;;;;;;;4.78;3.00;;;19.40;48.50;;;;;;4895730;29;20052;-80